createdAt,value
2023-05-15T00:02:26.822Z,100530.00
2023-05-15T00:04:54.692Z,100521.19
2023-05-15T00:07:22.451Z,100520.38
2023-05-15T00:09:50.250Z,100521.28
2023-05-15T00:12:18.270Z,100515.09
2023-05-15T00:14:45.946Z,100514.28
2023-05-15T00:17:13.614Z,100504.56
2023-05-15T00:19:42.729Z,100509.19
2023-05-15T00:22:10.581Z,100503.91
2023-05-15T00:24:38.337Z,100502.22
2023-05-15T00:27:06.427Z,100496.94
2023-05-15T00:29:34.317Z,100497.00
2023-05-15T00:32:01.968Z,100488.19
2023-05-15T00:34:30.028Z,100500.66
2023-05-15T00:37:00.769Z,100483.84
2023-05-15T00:39:28.680Z,100491.00
2023-05-15T00:41:59.539Z,100488.38
2023-05-15T00:44:30.825Z,100488.41
2023-05-15T00:46:59.160Z,100495.53
2023-05-15T00:49:29.566Z,100490.25
2023-05-15T00:52:02.013Z,100493.97
2023-05-15T00:54:29.876Z,100491.41
2023-05-15T00:56:58.267Z,100491.47
2023-05-15T00:59:27.014Z,100491.50
2023-05-15T01:01:55.458Z,100479.13
2023-05-15T01:04:23.290Z,100477.38
2023-05-15T01:06:53.484Z,100477.38
2023-05-15T01:09:25.077Z,100477.38
2023-05-15T01:11:55.946Z,100472.97
2023-05-15T01:14:23.605Z,100473.88
2023-05-15T01:16:51.483Z,100469.47
2023-05-15T01:19:19.496Z,100462.38
2023-05-15T01:22:24.014Z,100449.09
2023-05-15T01:25:15.125Z,100455.34
2023-05-15T01:27:49.849Z,100455.34
2023-05-15T01:30:23.401Z,100448.25
2023-05-15T01:32:56.785Z,100451.84
2023-05-15T01:35:30.091Z,100450.09
2023-05-15T01:38:24.898Z,100457.22
2023-05-15T01:40:58.261Z,100455.50
2023-05-15T01:43:29.893Z,100447.53
2023-05-15T01:45:59.377Z,100443.09
2023-05-15T01:48:29.553Z,100436.03
2023-05-15T01:51:02.308Z,100441.41
2023-05-15T01:53:32.974Z,100442.28
2023-05-15T01:56:01.119Z,100434.31
2023-05-15T01:58:31.978Z,100433.47
2023-05-15T02:01:01.924Z,100427.31
2023-05-15T02:03:33.579Z,100426.47
2023-05-15T02:06:02.657Z,100426.47
2023-05-15T02:08:31.721Z,100423.84
2023-05-15T02:11:01.660Z,100418.59
2023-05-15T02:13:32.099Z,100418.63
2023-05-15T02:15:59.882Z,100415.16
2023-05-15T02:18:28.811Z,100422.28
2023-05-15T02:21:01.006Z,100423.19
2023-05-15T02:23:28.742Z,100425.91
2023-05-15T02:26:09.769Z,100426.84
2023-05-15T02:28:47.032Z,100424.25
2023-05-15T02:31:23.755Z,100420.69
2023-05-15T02:34:00.141Z,100415.47
2023-05-15T02:36:33.391Z,100415.47
2023-05-15T02:39:01.964Z,100408.44
2023-05-15T02:41:33.029Z,100404.97
2023-05-15T02:44:03.759Z,100398.78
2023-05-15T02:46:32.938Z,100405.03
2023-05-15T02:49:02.012Z,100398.00
2023-05-15T02:51:30.149Z,100406.00
2023-05-15T02:54:00.897Z,100393.66
2023-05-15T02:56:28.607Z,100399.91
2023-05-15T02:58:56.753Z,100391.94
2023-05-15T03:01:25.938Z,100386.66
2023-05-15T03:03:53.887Z,100382.28
2023-05-15T03:06:21.660Z,100383.19
2023-05-15T03:08:49.376Z,100378.81
2023-05-15T03:11:19.232Z,100376.19
2023-05-15T03:13:47.031Z,100371.75
2023-05-15T03:16:14.734Z,100374.44
2023-05-15T03:18:43.850Z,100370.06
2023-05-15T03:21:11.544Z,100369.25
2023-05-15T03:23:39.402Z,100366.63
2023-05-15T03:26:07.052Z,100361.34
2023-05-15T03:28:35.083Z,100359.56
2023-05-15T03:31:04.865Z,100360.47
2023-05-15T03:33:32.901Z,100351.66
2023-05-15T03:36:01.916Z,100355.19
2023-05-15T03:38:29.617Z,100355.19
2023-05-15T03:40:57.322Z,100358.78
2023-05-15T03:43:25.240Z,100364.94
2023-05-15T03:45:52.961Z,100357.91
2023-05-15T03:48:20.754Z,100357.91
2023-05-15T03:50:48.556Z,100355.28
2023-05-15T03:53:17.726Z,100358.78
2023-05-15T03:55:46.201Z,100354.34
2023-05-15T03:58:13.879Z,100361.44
2023-05-15T04:00:41.593Z,100350.84
2023-05-15T04:03:09.438Z,100350.84
2023-05-15T04:05:37.388Z,100351.72
2023-05-15T04:08:05.676Z,100346.41
2023-05-15T04:10:34.743Z,100354.34
2023-05-15T04:13:02.460Z,100345.53
2023-05-15T04:15:31.180Z,100350.84
2023-05-15T04:17:59.012Z,100349.97
2023-05-15T04:20:26.790Z,100355.28
2023-05-15T04:22:54.891Z,100351.75
2023-05-15T04:25:22.776Z,100351.75
2023-05-15T04:27:52.246Z,100358.78
2023-05-15T04:30:20.125Z,100355.28
2023-05-15T04:32:47.932Z,100355.28
2023-05-15T04:35:15.783Z,100355.25
2023-05-15T04:37:45.613Z,100351.69
2023-05-15T04:40:16.232Z,100355.22
2023-05-15T04:42:44.144Z,100349.91
2023-05-15T04:45:13.240Z,100356.13
2023-05-15T04:47:41.054Z,100359.63
2023-05-15T04:50:09.659Z,100357.84
2023-05-15T04:52:37.406Z,100364.94
2023-05-15T04:55:05.892Z,100359.56
2023-05-15T04:57:33.602Z,100360.41
2023-05-15T05:00:01.314Z,100366.59
2023-05-15T05:02:30.365Z,100367.41
2023-05-15T05:04:58.231Z,100362.09
2023-05-15T05:07:25.999Z,100365.59
2023-05-15T05:09:53.654Z,100360.28
2023-05-15T05:12:21.325Z,100369.06
2023-05-15T05:14:49.333Z,100363.72
2023-05-15T05:17:17.105Z,100369.00
2023-05-15T05:19:46.206Z,100363.59
2023-05-15T05:22:13.933Z,100353.81
2023-05-15T05:24:41.744Z,100357.31
2023-05-15T05:27:09.526Z,100353.69
2023-05-15T05:29:37.275Z,100358.03
2023-05-15T05:32:05.435Z,100356.19
2023-05-15T05:34:33.207Z,100353.47
2023-05-15T05:37:02.407Z,100360.47
2023-05-15T05:39:30.480Z,100350.56
2023-05-15T05:41:58.144Z,100358.44
2023-05-15T05:44:26.317Z,100353.84
2023-05-15T05:46:54.366Z,100346.63
2023-05-15T05:49:22.096Z,100349.13
2023-05-15T05:51:49.774Z,100344.50
2023-05-15T05:54:19.212Z,100340.75
2023-05-15T05:56:47.097Z,100340.53
2023-05-15T05:59:14.794Z,100344.78
2023-05-15T06:01:43.332Z,100352.53
2023-05-15T06:04:11.333Z,100339.00
2023-05-15T06:06:39.080Z,100330.81
2023-05-15T06:09:06.925Z,100331.47
2023-05-15T06:11:36.072Z,100331.22
2023-05-15T06:14:03.924Z,100331.88
2023-05-15T06:16:31.683Z,100324.50
2023-05-15T06:18:59.422Z,100325.16
2023-05-15T06:21:27.099Z,100333.78
2023-05-15T06:23:54.804Z,100334.44
2023-05-15T06:26:22.907Z,100335.91
2023-05-15T06:28:51.996Z,100330.34
2023-05-15T06:31:19.682Z,100330.06
2023-05-15T06:33:47.460Z,100320.03
2023-05-15T06:36:15.148Z,100332.16
2023-05-15T06:38:42.848Z,100329.22
2023-05-15T06:41:10.626Z,100330.72
2023-05-15T06:43:38.544Z,100322.41
2023-05-15T06:46:07.700Z,100327.41
2023-05-15T06:48:35.410Z,100329.84
2023-05-15T06:51:03.651Z,100323.34
2023-05-15T06:53:31.582Z,100316.00
2023-05-15T06:55:59.296Z,100324.59
2023-05-15T06:58:26.982Z,100319.78
2023-05-15T07:00:56.241Z,100323.00
2023-05-15T07:03:26.670Z,100322.63
2023-05-15T07:05:54.499Z,100313.38
2023-05-15T07:08:22.423Z,100314.00
2023-05-15T07:10:50.674Z,100306.44
2023-05-15T07:13:18.977Z,100309.56
2023-05-15T07:15:46.790Z,100303.72
2023-05-15T07:18:14.762Z,100303.31
2023-05-15T07:20:43.896Z,100296.69
2023-05-15T07:23:11.972Z,100294.41
2023-05-15T07:25:40.833Z,100287.66
2023-05-15T07:28:08.817Z,100291.47
2023-05-15T07:30:36.625Z,100282.72
2023-05-15T07:33:04.586Z,100282.16
2023-05-15T07:35:32.269Z,100279.94
2023-05-15T07:38:01.440Z,100283.91
2023-05-15T07:40:29.193Z,100279.00
2023-05-15T07:42:57.116Z,100277.38
2023-05-15T07:45:24.974Z,100274.84
2023-05-15T07:47:52.863Z,100281.34
2023-05-15T07:50:20.629Z,100274.34
2023-05-15T07:52:48.397Z,100277.31
2023-05-15T07:55:17.398Z,100271.41
2023-05-15T07:57:45.677Z,100269.13
2023-05-15T08:00:14.629Z,100273.88
2023-05-15T08:02:46.247Z,100270.38
2023-05-15T08:05:14.053Z,100267.06
2023-05-15T08:07:41.754Z,100264.69
2023-05-15T08:10:10.328Z,100257.84
2023-05-15T08:12:39.446Z,100265.44
2023-05-15T08:15:08.415Z,100254.16
2023-05-15T08:17:36.093Z,100260.75
2023-05-15T08:20:04.950Z,100256.59
2023-05-15T08:22:32.653Z,100250.59
2023-05-15T08:25:00.910Z,100251.09
2023-05-15T08:27:28.550Z,100253.25
2023-05-15T08:29:58.600Z,100245.66
2023-05-15T08:32:26.797Z,100237.47
2023-05-15T08:34:54.540Z,100242.00
2023-05-15T08:37:22.212Z,100245.44
2023-05-15T08:39:49.935Z,100245.44
2023-05-15T08:42:24.011Z,100246.13
2023-05-15T08:44:52.040Z,100254.31
2023-05-15T08:47:21.772Z,100251.53
2023-05-15T08:49:56.500Z,100247.78
2023-05-15T08:52:24.755Z,100250.25
2023-05-15T08:54:53.727Z,100246.28
2023-05-15T08:57:22.062Z,100244.63
2023-05-15T08:59:50.987Z,100247.91
2023-05-15T09:02:19.564Z,100245.75
2023-05-15T09:04:48.755Z,100242.59
2023-05-15T09:07:17.170Z,100240.47
2023-05-15T09:09:46.278Z,100247.13
2023-05-15T09:12:16.764Z,100237.50
2023-05-15T09:14:45.037Z,100243.09
2023-05-15T09:17:13.094Z,100235.13
2023-05-15T09:19:41.084Z,100226.50
2023-05-15T09:22:18.320Z,100226.31
2023-05-15T09:24:48.125Z,100223.09
2023-05-15T09:27:15.907Z,100225.78
2023-05-15T09:29:43.719Z,100229.63
2023-05-15T09:32:13.814Z,100219.56
2023-05-15T09:34:43.778Z,100218.94
2023-05-15T09:37:14.467Z,100223.34
2023-05-15T09:39:44.875Z,100217.88
2023-05-15T09:42:14.396Z,100210.28
2023-05-15T09:44:42.736Z,100217.56
2023-05-15T09:47:11.415Z,100213.72
2023-05-15T09:49:39.429Z,100193.41
2023-05-15T09:52:10.114Z,100195.53
2023-05-15T09:54:38.725Z,100197.41
2023-05-15T09:57:12.059Z,100197.78
2023-05-15T09:59:44.530Z,100185.03
2023-05-15T10:02:15.343Z,100190.47
2023-05-15T10:04:42.963Z,100183.50
2023-05-15T10:07:10.773Z,100184.69
2023-05-15T10:09:39.162Z,100180.75
2023-05-15T10:12:10.563Z,100176.91
2023-05-15T10:14:38.409Z,100183.63
2023-05-15T10:17:06.641Z,100178.41
2023-05-15T10:19:37.581Z,100178.91
2023-05-15T10:22:13.246Z,100180.91
2023-05-15T10:24:43.117Z,100179.13
2023-05-15T10:27:13.945Z,100170.22
2023-05-15T10:29:42.332Z,100169.81
2023-05-15T10:32:10.399Z,100162.16
2023-05-15T10:34:38.536Z,100165.69
2023-05-15T10:37:07.610Z,100160.41
2023-05-15T10:39:39.951Z,100149.72
2023-05-15T10:42:09.504Z,100146.75
2023-05-15T10:44:38.474Z,100147.00
2023-05-15T10:47:07.417Z,100141.94
2023-05-15T10:49:36.080Z,100143.53
2023-05-15T10:52:04.199Z,100139.09
2023-05-15T10:54:31.922Z,100136.00
2023-05-15T10:56:59.664Z,100140.44
2023-05-15T10:59:35.079Z,100137.53
2023-05-15T11:02:24.349Z,100146.88
2023-05-15T11:04:56.715Z,100145.25
2023-05-15T11:07:28.245Z,100141.75
2023-05-15T11:09:56.924Z,100147.25
2023-05-15T11:12:24.783Z,100148.25
2023-05-15T11:15:21.060Z,100139.38
2023-05-15T11:18:06.400Z,100142.84
2023-05-15T11:20:38.638Z,100143.25
2023-05-15T11:23:06.502Z,100129.75
2023-05-15T11:25:35.907Z,100129.44
2023-05-15T11:28:04.904Z,100127.19
2023-05-15T11:30:38.165Z,100119.03
2023-05-15T11:33:12.181Z,100123.06
2023-05-15T11:35:42.183Z,100119.94
2023-05-15T11:38:16.266Z,100116.53
2023-05-15T11:40:49.841Z,100117.16
2023-05-15T11:43:21.939Z,100115.81
2023-05-15T11:45:52.807Z,100113.03
2023-05-15T11:48:22.038Z,100113.97
2023-05-15T11:50:53.589Z,100107.75
2023-05-15T11:53:23.171Z,100115.50
2023-05-15T11:55:54.346Z,100109.53
2023-05-15T11:58:24.981Z,100104.38
2023-05-15T12:00:54.447Z,100101.19
2023-05-15T12:03:25.854Z,100111.25
2023-05-15T12:05:59.820Z,100099.72
2023-05-15T12:08:32.576Z,100098.00
2023-05-15T12:11:01.606Z,100100.53
2023-05-15T12:13:30.341Z,100095.97
2023-05-15T12:15:58.478Z,100099.00
2023-05-15T12:18:27.641Z,100091.78
2023-05-15T12:20:55.905Z,100092.63
2023-05-15T12:23:25.781Z,100089.81
2023-05-15T12:25:58.383Z,100086.34
2023-05-15T12:28:27.140Z,100083.53
2023-05-15T12:30:55.328Z,100084.44
2023-05-15T12:33:23.427Z,100066.56
2023-05-15T12:35:58.277Z,100077.38
2023-05-15T12:38:27.960Z,100072.75
2023-05-15T12:40:56.962Z,100078.91
2023-05-15T12:43:26.090Z,100075.31
2023-05-15T12:45:54.440Z,100073.66
2023-05-15T12:48:22.536Z,100075.16
2023-05-15T12:50:51.532Z,100071.81
2023-05-15T12:53:22.726Z,100077.81
2023-05-15T12:55:52.085Z,100059.91
2023-05-15T12:58:20.006Z,100068.72
2023-05-15T13:00:48.644Z,100049.31
2023-05-15T13:03:16.771Z,100059.47
2023-05-15T13:05:45.985Z,100047.19
2023-05-15T13:08:17.619Z,100047.91
2023-05-15T13:10:47.798Z,100057.44
2023-05-15T13:13:17.502Z,100055.22
2023-05-15T13:15:46.104Z,100052.88
2023-05-15T13:18:15.319Z,100060.47
2023-05-15T13:20:44.709Z,100049.78
2023-05-15T13:23:13.376Z,100054.06
2023-05-15T13:25:41.067Z,100062.34
2023-05-15T13:28:11.144Z,100063.53
2023-05-15T13:30:41.645Z,100060.63
2023-05-15T13:33:10.526Z,100058.75
2023-05-15T13:35:39.222Z,100055.22
2023-05-15T13:38:09.443Z,100043.72
2023-05-15T13:43:32.597Z,100041.47
2023-05-15T13:46:00.219Z,100045.72
2023-05-15T13:48:27.856Z,100033.28
2023-05-15T13:50:56.168Z,100036.63
2023-05-15T13:53:23.786Z,100035.03
2023-05-15T13:55:51.527Z,100035.69
2023-05-15T13:58:19.284Z,100034.69
2023-05-15T14:00:49.506Z,100035.19
2023-05-15T14:03:17.600Z,100043.09
2023-05-15T14:05:45.326Z,100038.63
2023-05-15T14:08:12.958Z,100040.44
2023-05-15T14:10:40.566Z,100033.94
2023-05-15T14:13:08.165Z,100049.13
2023-05-15T14:15:35.794Z,100043.91
2023-05-15T14:18:04.995Z,100055.66
2023-05-15T14:20:32.662Z,100058.75
2023-05-15T14:23:00.268Z,100052.78
2023-05-15T14:25:27.929Z,100052.75
2023-05-15T14:27:55.680Z,100055.09
2023-05-15T14:30:23.791Z,100057.97
2023-05-15T14:32:51.797Z,100060.69
2023-05-15T14:35:21.004Z,100059.28
2023-05-15T14:37:48.607Z,100056.56
2023-05-15T14:40:16.752Z,100051.13
2023-05-15T14:42:44.373Z,100051.13
2023-05-15T14:45:12.286Z,100045.16
2023-05-15T14:47:40.592Z,100051.69
2023-05-15T14:50:09.625Z,100056.81
2023-05-15T14:52:38.606Z,100057.63
2023-05-15T14:55:09.192Z,100054.16
2023-05-15T14:57:37.679Z,100062.38
2023-05-15T15:00:06.910Z,100058.16
2023-05-15T15:02:34.928Z,100054.44
2023-05-15T15:05:04.269Z,100053.88
2023-05-15T15:07:31.899Z,100057.22
2023-05-15T15:10:00.856Z,100050.09
2023-05-15T15:12:28.495Z,100049.16
2023-05-15T15:14:56.118Z,100056.53
2023-05-15T15:17:23.751Z,100058.56
2023-05-15T15:19:51.388Z,100054.22
2023-05-15T15:22:18.960Z,100053.59
2023-05-15T15:24:46.594Z,100057.50
2023-05-15T15:27:15.499Z,100055.97
2023-05-15T15:29:43.134Z,100055.41
2023-05-15T15:32:11.081Z,100055.41
2023-05-15T15:34:38.822Z,100050.94
2023-05-15T15:37:06.570Z,100056.81
2023-05-15T15:39:34.280Z,100050.44
2023-05-15T15:42:03.973Z,100046.47
2023-05-15T15:44:35.949Z,100041.47
2023-05-15T15:47:03.670Z,100041.94
2023-05-15T15:49:31.857Z,100040.75
2023-05-15T15:51:59.534Z,100040.13
2023-05-15T15:54:27.218Z,100044.50
2023-05-15T15:56:55.015Z,100038.72
2023-05-15T15:59:23.149Z,100037.28
2023-05-15T16:01:52.779Z,100031.50
2023-05-15T16:04:20.398Z,100044.72
2023-05-15T16:06:48.524Z,100041.06
2023-05-15T16:09:19.029Z,100054.44
2023-05-15T16:11:46.640Z,100053.38
2023-05-15T16:14:14.552Z,100041.97
2023-05-15T16:16:42.286Z,100043.13
2023-05-15T16:19:11.358Z,100038.50
2023-05-15T16:21:39.111Z,100045.53
2023-05-15T16:24:07.367Z,100054.94
2023-05-15T16:26:35.170Z,100039.97
2023-05-15T16:29:02.843Z,100039.97
2023-05-15T16:31:31.167Z,100038.22
2023-05-15T16:34:02.090Z,100047.28
2023-05-15T16:36:33.135Z,100049.22
2023-05-15T16:39:01.712Z,100057.41
2023-05-15T16:41:29.656Z,100057.03
2023-05-15T16:43:57.361Z,100058.34
2023-05-15T16:46:25.018Z,100059.00
2023-05-15T16:48:52.722Z,100069.50
2023-05-15T16:51:21.457Z,100059.16
2023-05-15T16:53:50.478Z,100064.44
2023-05-15T16:56:18.142Z,100069.63
2023-05-15T16:58:46.066Z,100066.84
2023-05-15T17:01:13.783Z,100066.75
2023-05-15T17:03:41.503Z,100068.16
2023-05-15T17:06:09.394Z,100068.59
2023-05-15T17:08:37.052Z,100073.63
2023-05-15T17:11:06.158Z,100078.63
2023-05-15T17:13:33.814Z,100074.50
2023-05-15T17:16:01.505Z,100074.94
2023-05-15T17:18:29.179Z,100080.59
2023-05-15T17:20:56.880Z,100073.97
2023-05-15T17:23:25.045Z,100079.88
2023-05-15T17:25:52.738Z,100092.97
2023-05-15T17:28:21.703Z,100091.56
2023-05-15T17:30:49.507Z,100095.53
2023-05-15T17:33:17.141Z,100098.72
2023-05-15T17:35:44.920Z,100103.78
2023-05-15T17:38:12.611Z,100094.28
2023-05-15T17:40:40.740Z,100104.50
2023-05-15T17:43:09.821Z,100105.00
2023-05-15T17:45:38.923Z,100108.19
2023-05-15T17:48:07.074Z,100106.72
2023-05-15T17:50:37.965Z,100108.78
2023-05-15T17:53:05.757Z,100119.81
2023-05-15T17:55:33.584Z,100120.13
2023-05-15T17:58:01.576Z,100118.56
2023-05-15T18:00:29.233Z,100123.22
2023-05-15T18:02:58.327Z,100124.31
2023-05-15T18:05:27.667Z,100137.13
2023-05-15T18:07:58.018Z,100137.44
2023-05-15T18:10:25.976Z,100137.66
2023-05-15T18:12:53.678Z,100142.31
2023-05-15T18:15:21.528Z,100150.53
2023-05-15T18:17:49.812Z,100150.03
2023-05-15T18:20:18.887Z,100153.09
2023-05-15T18:22:47.017Z,100152.50
2023-05-15T18:25:15.078Z,100156.41
2023-05-15T18:27:43.323Z,100169.38
2023-05-15T18:30:12.159Z,100176.84
2023-05-15T18:32:43.726Z,100180.66
2023-05-15T18:35:13.962Z,100182.66
2023-05-15T18:37:42.909Z,100193.56
2023-05-15T18:40:11.644Z,100189.38
2023-05-15T18:42:39.378Z,100199.63
2023-05-15T18:45:08.549Z,100203.50
2023-05-15T18:47:36.354Z,100200.38
2023-05-15T18:50:04.110Z,100207.88
2023-05-15T18:52:31.890Z,100206.53
2023-05-15T18:55:01.420Z,100214.84
2023-05-15T18:57:29.109Z,100215.97
2023-05-15T18:59:56.828Z,100224.16
2023-05-15T19:02:26.113Z,100232.41
2023-05-15T19:04:54.481Z,100238.78
2023-05-15T19:07:22.618Z,100242.56
2023-05-15T19:09:50.393Z,100237.38
2023-05-15T19:12:19.407Z,100242.84
2023-05-15T19:14:47.134Z,100239.50
2023-05-15T19:17:15.414Z,100249.44
2023-05-15T19:19:43.262Z,100253.19
2023-05-15T19:22:10.967Z,100248.06
2023-05-15T19:24:38.659Z,100257.16
2023-05-15T19:27:07.457Z,100256.47
2023-05-15T19:29:36.499Z,100260.31
2023-05-15T19:32:04.328Z,100257.00
2023-05-15T19:34:32.101Z,100258.13
2023-05-15T19:36:59.840Z,100265.53
2023-05-15T19:39:27.550Z,100263.09
2023-05-15T19:41:55.993Z,100255.25
2023-05-15T19:44:23.891Z,100251.81
2023-05-15T19:46:54.515Z,100256.38
2023-05-15T19:49:22.284Z,100263.66
2023-05-15T19:51:49.895Z,100263.00
2023-05-15T19:54:17.570Z,100260.50
2023-05-15T19:56:45.276Z,100255.28
2023-05-15T19:59:12.916Z,100259.88
2023-05-15T20:01:40.628Z,100264.53
2023-05-15T20:04:09.653Z,100262.91
2023-05-15T20:06:37.309Z,100263.03
2023-05-15T20:09:05.020Z,100266.69
2023-05-15T20:11:32.770Z,100273.09
2023-05-15T20:14:00.688Z,100274.16
2023-05-15T20:16:28.498Z,100275.16
2023-05-15T20:18:56.218Z,100278.91
2023-05-15T20:21:25.267Z,100279.91
2023-05-15T20:23:52.924Z,100278.28
2023-05-15T20:26:21.754Z,100289.09
2023-05-15T20:28:49.407Z,100287.41
2023-05-15T20:31:17.150Z,100290.13
2023-05-15T20:33:44.889Z,100290.19
2023-05-15T20:36:12.501Z,100291.09
2023-05-15T20:38:41.596Z,100290.28
2023-05-15T20:41:09.432Z,100283.25
2023-05-15T20:43:38.538Z,100294.91
2023-05-15T20:46:08.750Z,100286.06
2023-05-15T20:48:36.664Z,100284.34
2023-05-15T20:51:04.649Z,100288.88
2023-05-15T20:53:32.285Z,100292.59
2023-05-15T20:56:01.240Z,100289.09
2023-05-15T20:58:28.892Z,100285.63
2023-05-15T21:00:58.220Z,100286.56
2023-05-15T21:03:25.901Z,100288.44
2023-05-15T21:05:56.099Z,100300.09
2023-05-15T21:08:24.948Z,100290.47
2023-05-15T21:10:55.377Z,100298.56
2023-05-15T21:13:24.384Z,100293.28
2023-05-15T21:15:52.122Z,100292.50
2023-05-15T21:18:19.859Z,100297.91
2023-05-15T21:20:47.498Z,100291.75
2023-05-15T21:23:15.104Z,100284.75
2023-05-15T21:25:44.004Z,100287.56
2023-05-15T21:28:11.636Z,100296.53
2023-05-15T21:30:40.582Z,100294.91
2023-05-15T21:33:08.369Z,100303.84
2023-05-15T21:35:36.088Z,100305.69
2023-05-15T21:38:03.702Z,100298.59
2023-05-15T21:40:31.362Z,100310.19
2023-05-15T21:42:59.048Z,100310.22
2023-05-15T21:45:26.717Z,100313.81
2023-05-15T21:47:55.792Z,100314.75
2023-05-15T21:50:23.505Z,100323.72
2023-05-15T21:52:51.648Z,100337.06
2023-05-15T21:55:19.970Z,100327.31
2023-05-15T21:57:47.598Z,100331.81
2023-05-15T22:00:16.216Z,100333.63
2023-05-15T22:02:44.099Z,100328.38
2023-05-15T22:05:13.411Z,100332.84
2023-05-15T22:07:41.324Z,100335.56
2023-05-15T22:10:13.768Z,100338.25
2023-05-15T22:12:41.393Z,100330.25
2023-05-15T22:15:10.568Z,100343.69
2023-05-15T22:17:38.885Z,100345.56
2023-05-15T22:20:11.395Z,100343.75
2023-05-15T22:22:42.812Z,100337.63
2023-05-15T22:25:11.086Z,100340.41
2023-05-15T22:27:38.873Z,100340.53
2023-05-15T22:30:09.612Z,100350.47
2023-05-15T22:32:37.622Z,100343.53
2023-05-15T22:35:06.141Z,100349.88
2023-05-15T22:37:34.018Z,100354.59
2023-05-15T22:40:04.546Z,100348.69
2023-05-15T22:42:32.521Z,100355.13
2023-05-15T22:45:00.823Z,100356.16
2023-05-15T22:47:29.249Z,100352.75
2023-05-15T22:49:56.996Z,100355.63
2023-05-15T22:52:25.260Z,100362.97
2023-05-15T22:54:53.066Z,100357.88
2023-05-15T22:57:22.213Z,100355.34
2023-05-15T22:59:49.973Z,100364.47
2023-05-15T23:02:17.748Z,100363.78
2023-05-15T23:04:45.753Z,100358.69
2023-05-15T23:07:13.653Z,100378.44
2023-05-15T23:09:41.450Z,100370.63
2023-05-15T23:12:09.391Z,100374.34
2023-05-15T23:14:38.513Z,100377.22
2023-05-15T23:17:06.637Z,100372.88
2023-05-15T23:19:34.345Z,100375.78
2023-05-15T23:22:02.262Z,100385.69
2023-05-15T23:24:30.203Z,100383.13
2023-05-15T23:26:57.900Z,100385.16
2023-05-15T23:29:25.558Z,100381.72
2023-05-15T23:31:57.097Z,100382.66
2023-05-15T23:34:24.825Z,100392.56
2023-05-15T23:36:52.525Z,100393.56
2023-05-15T23:39:20.147Z,100391.00
2023-05-15T23:41:59.537Z,100391.06
2023-05-15T23:44:36.181Z,100388.50
2023-05-15T23:47:16.282Z,100393.09
2023-05-15T23:49:46.695Z,100388.81
2023-05-15T23:52:17.349Z,100400.47
2023-05-15T23:54:54.289Z,100401.53
2023-05-15T23:57:24.856Z,100402.47
2023-05-15T23:59:52.850Z,100413.28
